Time;durP1;ratioP1;P1;durP2;ratioP2;P2;SDS_P1;SDS_P2;PMS_P1;PMS_P2;Temp;Humidity;BMP_temperature;BMP_pressure;BME280_temperature;BME280_humidity;BME280_pressure;Samples;Min_cycle;Max_cycle;Signal;HPM_P1;HPM_P2
2023/07/16 00:01:26;;;;;;;2.65;2.15;;;23.20;67.60;;;;;;5047135;28;20025;-59
2023/07/16 00:03:51;;;;;;;4.00;1.92;;;23.20;67.40;;;;;;5039068;28;20482;-61
2023/07/16 00:06:17;;;;;;;3.58;2.42;;;23.20;67.60;;;;;;5045594;28;20479;-62
2023/07/16 00:08:43;;;;;;;2.05;1.80;;;23.20;67.80;;;;;;5043597;28;20659;-60
2023/07/16 00:11:08;;;;;;;2.35;1.75;;;23.20;67.90;;;;;;5043116;28;20361;-63
2023/07/16 00:13:34;;;;;;;3.03;1.83;;;23.20;67.80;;;;;;5042808;28;20029;-61
2023/07/16 00:16:00;;;;;;;2.83;1.75;;;23.20;67.90;;;;;;5044327;28;20025;-61
2023/07/16 00:18:25;;;;;;;3.00;2.08;;;23.20;67.90;;;;;;5035874;28;20033;-61
2023/07/16 00:20:51;;;;;;;4.47;2.10;;;23.30;67.90;;;;;;5044400;28;20032;-61
2023/07/16 00:23:16;;;;;;;4.72;2.17;;;23.30;68.50;;;;;;5042144;28;20028;-61
2023/07/16 00:25:42;;;;;;;2.42;1.90;;;23.30;67.80;;;;;;5035667;28;20088;-60
2023/07/16 00:28:08;;;;;;;4.88;2.40;;;23.30;67.70;;;;;;5038534;28;20163;-61
2023/07/16 00:30:33;;;;;;;3.78;1.92;;;23.30;67.40;;;;;;5043403;28;20115;-63
2023/07/16 00:32:59;;;;;;;5.75;2.20;;;23.30;67.50;;;;;;5045859;28;20041;-61
2023/07/16 00:35:24;;;;;;;4.25;1.95;;;23.30;67.50;;;;;;5041879;28;20055;-60
2023/07/16 00:37:51;;;;;;;5.28;1.95;;;23.30;67.60;;;;;;5042705;28;20033;-61
2023/07/16 00:40:17;;;;;;;9.10;2.08;;;23.30;67.80;;;;;;4988191;28;20024;-61
2023/07/16 00:42:42;;;;;;;2.78;1.98;;;23.30;67.70;;;;;;5044529;28;20022;-62
2023/07/16 00:45:12;;;;;;;6.43;1.90;;;23.30;67.60;;;;;;5037696;28;20036;-62
2023/07/16 00:47:39;;;;;;;3.80;1.80;;;23.20;67.90;;;;;;5045094;28;20013;-61
2023/07/16 00:50:06;;;;;;;2.83;1.45;;;23.20;67.50;;;;;;5045387;28;20029;-62
2023/07/16 00:52:32;;;;;;;2.22;1.20;;;23.20;67.40;;;;;;5044185;28;20094;-60
2023/07/16 00:54:58;;;;;;;1.52;1.30;;;23.20;67.20;;;;;;5042452;28;20056;-60
2023/07/16 00:57:24;;;;;;;1.63;1.00;;;23.20;66.90;;;;;;5044305;28;20025;-61
2023/07/16 00:59:50;;;;;;;1.08;0.98;;;23.20;66.90;;;;;;5046301;28;20032;-62
2023/07/16 01:02:16;;;;;;;1.33;0.90;;;23.10;66.80;;;;;;5038753;28;20017;-60
2023/07/16 01:04:41;;;;;;;5.40;1.25;;;23.10;66.90;;;;;;5047358;28;20028;-61
2023/07/16 01:07:11;;;;;;;1.65;0.73;;;23.00;67.40;;;;;;5045307;28;20409;-60
2023/07/16 01:09:42;;;;;;;0.70;0.70;;;23.00;67.70;;;;;;5044256;28;20037;-61
2023/07/16 01:12:09;;;;;;;1.27;0.68;;;23.00;67.40;;;;;;5049549;28;20048;-60
2023/07/16 01:14:35;;;;;;;1.77;0.70;;;23.00;67.40;;;;;;5047742;28;20025;-60
2023/07/16 01:17:07;;;;;;;0.60;0.50;;;23.00;67.40;;;;;;5044450;28;20033;-61
2023/07/16 01:19:34;;;;;;;0.68;0.50;;;23.00;67.80;;;;;;5046860;28;20478;-60
2023/07/16 01:22:21;;;;;;;1.50;0.50;;;23.00;66.60;;;;;;5039930;28;20028;-60
2023/07/16 01:25:02;;;;;;;0.85;0.50;;;23.00;66.90;;;;;;5044645;28;20033;-61
2023/07/16 01:27:44;;;;;;;0.40;0.40;;;22.90;66.90;;;;;;5045317;28;20457;-61
2023/07/16 01:30:15;;;;;;;0.50;0.50;;;22.90;66.00;;;;;;5045314;28;20095;-60
2023/07/16 01:32:41;;;;;;;2.75;0.47;;;22.80;65.60;;;;;;5042933;28;20395;-60
2023/07/16 01:35:08;;;;;;;0.65;0.40;;;22.80;65.80;;;;;;5041722;28;20037;-62
2023/07/16 01:37:34;;;;;;;0.95;0.50;;;22.80;66.10;;;;;;5039621;28;20029;-61
2023/07/16 01:40:01;;;;;;;0.88;0.60;;;22.70;65.90;;;;;;4983822;28;20074;-61
2023/07/16 01:42:27;;;;;;;0.43;0.38;;;22.70;66.10;;;;;;5036099;28;20430;-61
2023/07/16 01:44:53;;;;;;;2.00;0.50;;;22.70;66.30;;;;;;5045314;28;20031;-60
2023/07/16 01:47:48;;;;;;;9.48;0.50;;;22.70;65.80;;;;;;5045525;28;20029;-60
2023/07/16 01:50:14;;;;;;;0.73;0.30;;;22.60;65.80;;;;;;5042706;28;20439;-60
2023/07/16 01:52:39;;;;;;;0.82;0.60;;;22.60;65.20;;;;;;5044907;28;20032;-61
2023/07/16 01:55:06;;;;;;;0.50;0.40;;;22.50;65.50;;;;;;5043531;28;20044;-61
2023/07/16 01:57:31;;;;;;;1.38;0.40;;;22.50;66.20;;;;;;5045294;28;20017;-60
2023/07/16 01:59:57;;;;;;;1.95;0.50;;;22.50;66.40;;;;;;5048393;28;20395;-61
2023/07/16 02:02:22;;;;;;;1.00;0.60;;;22.40;66.60;;;;;;5043590;28;20033;-61
2023/07/16 02:04:48;;;;;;;0.63;0.60;;;22.40;66.60;;;;;;5034283;28;20036;-60
2023/07/16 02:07:14;;;;;;;1.33;0.55;;;22.40;66.70;;;;;;5042642;28;20512;-60
2023/07/16 02:09:40;;;;;;;1.00;0.55;;;22.40;66.80;;;;;;5045479;28;20069;-60
2023/07/16 02:12:06;;;;;;;0.93;0.50;;;22.40;67.10;;;;;;5040653;28;20013;-61
2023/07/16 02:14:32;;;;;;;1.75;0.60;;;22.40;67.30;;;;;;5047835;28;20025;-61
2023/07/16 02:16:57;;;;;;;3.15;0.65;;;22.40;67.10;;;;;;5045895;28;20037;-61
2023/07/16 02:19:25;;;;;;;3.35;0.50;;;22.40;67.20;;;;;;5047158;28;20079;-60
2023/07/16 02:21:50;;;;;;;0.40;0.40;;;22.40;67.20;;;;;;5041454;28;20065;-63
2023/07/16 02:24:16;;;;;;;0.70;0.50;;;22.40;67.10;;;;;;5023079;28;20455;-61
2023/07/16 02:26:42;;;;;;;1.23;0.60;;;22.40;67.20;;;;;;5043505;28;20475;-60
2023/07/16 02:29:08;;;;;;;0.75;0.43;;;22.40;67.60;;;;;;5027587;28;20108;-61
2023/07/16 02:31:35;;;;;;;0.40;0.40;;;22.30;67.80;;;;;;5035387;28;21233;-60
2023/07/16 02:34:00;;;;;;;2.63;0.90;;;22.30;67.90;;;;;;5044914;28;20426;-61
2023/07/16 02:36:26;;;;;;;1.38;0.60;;;22.30;67.60;;;;;;5041531;28;20108;-60
2023/07/16 02:38:52;;;;;;;0.52;0.50;;;22.20;67.70;;;;;;5045631;28;20502;-61
2023/07/16 02:41:17;;;;;;;4.32;0.50;;;22.20;67.90;;;;;;5048397;28;20028;-61
2023/07/16 02:43:45;;;;;;;0.73;0.50;;;22.20;67.80;;;;;;5043525;28;20329;-60
2023/07/16 02:46:11;;;;;;;1.33;0.63;;;22.20;67.90;;;;;;5046912;28;20391;-60
2023/07/16 02:48:37;;;;;;;0.85;0.50;;;22.20;67.80;;;;;;5039095;28;20734;-61
2023/07/16 02:51:02;;;;;;;0.73;0.50;;;22.10;67.80;;;;;;5046528;28;20079;-61
2023/07/16 02:53:28;;;;;;;0.50;0.50;;;22.10;68.00;;;;;;5043425;28;20025;-61
2023/07/16 02:55:54;;;;;;;0.68;0.50;;;22.10;68.30;;;;;;5045652;28;20174;-61
2023/07/16 02:58:19;;;;;;;0.80;0.70;;;22.10;68.70;;;;;;5040653;28;20388;-61
2023/07/16 03:00:45;;;;;;;1.05;0.52;;;22.10;68.90;;;;;;5046112;28;20021;-61
2023/07/16 03:03:11;;;;;;;1.73;0.77;;;22.10;69.00;;;;;;5043628;28;20389;-59
2023/07/16 03:05:36;;;;;;;0.60;0.60;;;22.10;69.10;;;;;;5042022;28;20048;-61
2023/07/16 03:08:02;;;;;;;7.38;0.73;;;22.10;69.20;;;;;;5043797;28;20543;-61
2023/07/16 03:10:28;;;;;;;5.10;0.65;;;22.10;69.30;;;;;;5038434;28;20377;-61
2023/07/16 03:12:54;;;;;;;1.15;0.50;;;22.10;69.20;;;;;;5044958;28;20051;-60
2023/07/16 03:15:19;;;;;;;0.77;0.50;;;22.10;69.40;;;;;;5043046;28;20044;-61
2023/07/16 03:17:45;;;;;;;1.05;0.55;;;22.00;69.40;;;;;;5044778;28;20029;-61
2023/07/16 03:20:13;;;;;;;0.65;0.60;;;22.00;69.90;;;;;;5041475;28;20043;-60
2023/07/16 03:22:38;;;;;;;0.85;0.57;;;22.00;70.10;;;;;;5041736;28;20033;-60
2023/07/16 03:25:05;;;;;;;0.68;0.60;;;22.00;70.20;;;;;;5046758;28;20036;-62
2023/07/16 03:27:31;;;;;;;0.80;0.60;;;22.00;70.20;;;;;;5046667;28;20051;-62
2023/07/16 03:29:57;;;;;;;0.63;0.50;;;22.00;70.30;;;;;;5046696;28;20029;-60
2023/07/16 03:32:22;;;;;;;1.75;0.63;;;22.10;70.20;;;;;;5042075;28;20025;-60
2023/07/16 03:34:48;;;;;;;0.80;0.68;;;22.10;70.10;;;;;;5043025;28;20041;-60
2023/07/16 03:37:13;;;;;;;3.40;0.60;;;22.10;70.00;;;;;;5045665;28;20078;-61
2023/07/16 03:39:39;;;;;;;1.73;0.50;;;22.00;69.90;;;;;;5039351;28;20080;-61
2023/07/16 03:42:05;;;;;;;1.55;0.60;;;22.10;69.70;;;;;;5045714;28;20120;-60
2023/07/16 03:44:31;;;;;;;4.25;0.60;;;22.10;69.40;;;;;;5039653;28;20029;-61
2023/07/16 03:46:56;;;;;;;1.42;0.50;;;22.10;69.20;;;;;;5041522;28;20040;-60
2023/07/16 03:49:22;;;;;;;1.15;0.65;;;22.00;69.20;;;;;;5046136;28;20041;-60
2023/07/16 03:51:47;;;;;;;0.68;0.65;;;22.00;69.10;;;;;;5043786;28;20029;-60
2023/07/16 03:54:13;;;;;;;1.25;0.60;;;22.00;69.00;;;;;;5043777;28;20021;-61
2023/07/16 03:56:39;;;;;;;3.30;0.90;;;21.90;68.70;;;;;;5031500;28;20384;-61
2023/07/16 03:59:04;;;;;;;1.52;0.70;;;21.90;68.60;;;;;;5012447;28;20112;-60
2023/07/16 04:01:30;;;;;;;1.23;0.63;;;21.90;68.50;;;;;;5025625;28;20083;-60
2023/07/16 04:03:56;;;;;;;0.85;0.60;;;21.80;68.30;;;;;;5029264;28;20041;-60
2023/07/16 04:06:21;;;;;;;1.38;0.70;;;21.80;67.90;;;;;;5016736;28;20028;-60
2023/07/16 04:08:47;;;;;;;2.63;0.73;;;21.80;67.30;;;;;;5026518;28;20030;-60
2023/07/16 04:11:12;;;;;;;0.60;0.60;;;21.70;66.50;;;;;;5022757;28;20491;-60
2023/07/16 04:13:38;;;;;;;0.60;0.60;;;21.70;66.00;;;;;;5027032;28;20472;-60
2023/07/16 04:16:04;;;;;;;1.95;0.80;;;21.60;65.80;;;;;;5034690;28;20369;-62
2023/07/16 04:18:30;;;;;;;0.73;0.52;;;21.60;65.70;;;;;;5025159;28;20022;-61
2023/07/16 04:20:55;;;;;;;0.77;0.77;;;21.50;65.40;;;;;;5033736;28;20381;-61
2023/07/16 04:23:22;;;;;;;0.60;0.60;;;21.50;65.20;;;;;;5026222;28;20126;-61
2023/07/16 04:25:51;;;;;;;2.10;1.00;;;21.40;65.40;;;;;;5015518;28;20476;-61
2023/07/16 04:28:17;;;;;;;1.80;0.68;;;21.40;65.70;;;;;;5026501;28;20447;-61
2023/07/16 04:30:43;;;;;;;0.90;0.60;;;21.40;65.60;;;;;;5025502;28;20065;-61
2023/07/16 04:33:09;;;;;;;0.98;0.63;;;21.30;65.60;;;;;;5030841;28;20067;-61
2023/07/16 04:35:35;;;;;;;1.20;0.80;;;21.30;65.80;;;;;;5029421;28;20026;-60
2023/07/16 04:38:00;;;;;;;0.98;0.80;;;21.30;65.80;;;;;;5014168;28;20398;-61
2023/07/16 04:40:26;;;;;;;1.00;0.85;;;21.20;66.10;;;;;;5031544;28;20563;-61
2023/07/16 04:42:51;;;;;;;1.50;0.80;;;21.20;66.40;;;;;;5029503;28;20025;-62
2023/07/16 04:45:17;;;;;;;2.67;0.98;;;21.10;66.80;;;;;;5019136;28;20060;-60
2023/07/16 04:47:43;;;;;;;1.13;0.80;;;21.10;66.80;;;;;;5028895;28;20037;-60
2023/07/16 04:50:09;;;;;;;0.82;0.70;;;21.20;67.40;;;;;;5038407;28;20040;-60
2023/07/16 04:52:35;;;;;;;1.58;0.80;;;21.10;67.60;;;;;;5025342;28;20030;-60
2023/07/16 04:55:00;;;;;;;0.90;0.65;;;21.20;67.70;;;;;;5037696;28;20060;-61
2023/07/16 04:57:26;;;;;;;1.00;0.65;;;21.20;67.70;;;;;;5047520;28;20328;-60
2023/07/16 04:59:52;;;;;;;1.40;0.90;;;21.20;67.20;;;;;;5049448;28;20024;-61
2023/07/16 05:02:17;;;;;;;0.77;0.70;;;21.20;67.20;;;;;;5044944;28;20610;-59
2023/07/16 05:04:44;;;;;;;1.92;0.70;;;21.20;67.40;;;;;;5048927;28;20033;-60
2023/07/16 05:07:10;;;;;;;1.52;0.60;;;21.20;67.40;;;;;;5043563;28;20029;-60
2023/07/16 05:09:36;;;;;;;1.63;0.85;;;21.30;67.30;;;;;;5041943;28;20032;-63
2023/07/16 05:12:02;;;;;;;1.45;0.90;;;21.30;67.10;;;;;;5022459;28;20112;-61
2023/07/16 05:14:28;;;;;;;1.48;0.70;;;21.30;66.70;;;;;;5047862;28;20100;-62
2023/07/16 05:16:54;;;;;;;1.23;0.80;;;21.20;66.70;;;;;;5049608;28;20032;-61
2023/07/16 05:19:20;;;;;;;1.40;0.85;;;21.20;66.70;;;;;;5044807;28;20060;-61
2023/07/16 05:21:46;;;;;;;1.63;1.10;;;21.20;66.70;;;;;;5049099;28;20103;-60
2023/07/16 05:24:11;;;;;;;2.22;0.90;;;21.20;67.10;;;;;;5040756;28;20029;-60
2023/07/16 05:26:39;;;;;;;1.38;0.90;;;21.20;67.50;;;;;;5040466;28;20373;-60
2023/07/16 05:29:04;;;;;;;1.90;0.90;;;21.20;67.40;;;;;;5043107;28;20017;-60
2023/07/16 05:31:30;;;;;;;2.88;0.90;;;21.20;67.50;;;;;;5043045;28;20029;-61
2023/07/16 05:33:56;;;;;;;4.43;1.08;;;21.20;67.30;;;;;;5044264;28;20502;-60
2023/07/16 05:36:22;;;;;;;2.05;0.80;;;21.20;67.30;;;;;;5045003;28;20100;-60
2023/07/16 05:38:47;;;;;;;6.22;0.98;;;21.20;67.50;;;;;;5044223;28;20025;-60
2023/07/16 05:41:13;;;;;;;1.23;0.70;;;21.20;67.80;;;;;;5043855;28;20029;-61
2023/07/16 05:43:38;;;;;;;1.67;0.80;;;21.10;68.10;;;;;;5045627;28;20045;-61
2023/07/16 05:46:05;;;;;;;2.58;1.15;;;21.20;68.00;;;;;;5046503;28;20438;-61
2023/07/16 05:48:31;;;;;;;1.42;0.77;;;21.20;68.20;;;;;;5044699;28;20032;-61
2023/07/16 05:50:57;;;;;;;2.47;0.77;;;21.20;68.00;;;;;;5048228;28;20111;-60
2023/07/16 05:53:22;;;;;;;1.00;0.60;;;21.20;68.00;;;;;;5039766;28;20484;-61
2023/07/16 05:55:49;;;;;;;0.82;0.70;;;21.10;68.70;;;;;;5041244;28;20551;-61
2023/07/16 05:58:16;;;;;;;2.90;1.00;;;21.20;68.40;;;;;;5045604;28;20025;-60
2023/07/16 06:00:41;;;;;;;1.55;0.70;;;21.20;68.90;;;;;;5037640;28;20041;-60
2023/07/16 06:03:07;;;;;;;1.67;0.98;;;21.20;68.80;;;;;;5019155;28;20183;-60
2023/07/16 06:05:34;;;;;;;2.63;0.90;;;21.20;68.70;;;;;;5039781;28;20032;-61
2023/07/16 06:08:01;;;;;;;1.13;0.80;;;21.30;68.80;;;;;;5041120;28;20365;-61
2023/07/16 06:10:27;;;;;;;1.30;0.80;;;21.30;68.90;;;;;;5042869;28;20048;-60
2023/07/16 06:12:52;;;;;;;0.73;0.63;;;21.30;69.00;;;;;;5035369;28;20479;-60
2023/07/16 06:15:18;;;;;;;0.88;0.70;;;21.40;68.70;;;;;;5045798;28;20036;-60
2023/07/16 06:17:44;;;;;;;2.17;0.80;;;21.40;68.40;;;;;;5041412;28;20033;-60
2023/07/16 06:20:10;;;;;;;3.10;0.75;;;21.40;68.30;;;;;;5044295;28;20471;-60
2023/07/16 06:22:36;;;;;;;1.67;0.70;;;21.40;68.20;;;;;;5045432;28;20045;-61
2023/07/16 06:25:02;;;;;;;1.58;0.80;;;21.40;68.30;;;;;;5049527;28;20033;-61
2023/07/16 06:27:27;;;;;;;2.10;1.00;;;21.50;68.00;;;;;;5048448;28;20025;-61
2023/07/16 06:29:53;;;;;;;2.00;0.70;;;21.50;68.00;;;;;;5027267;28;20100;-62
2023/07/16 06:32:19;;;;;;;1.00;0.60;;;21.50;67.70;;;;;;5039263;28;20017;-60
2023/07/16 06:34:44;;;;;;;1.30;0.70;;;21.50;67.80;;;;;;5022007;28;20337;-60
2023/07/16 06:37:10;;;;;;;4.40;0.90;;;21.60;67.80;;;;;;5047410;28;20029;-61
2023/07/16 06:39:36;;;;;;;2.42;1.00;;;21.60;67.70;;;;;;5039700;28;20033;-61
2023/07/16 06:42:01;;;;;;;2.25;0.93;;;21.60;67.90;;;;;;4955463;28;20053;-62
2023/07/16 06:44:27;;;;;;;1.02;0.80;;;21.70;68.40;;;;;;5025716;28;20025;-61
2023/07/16 06:46:53;;;;;;;0.85;0.80;;;21.70;68.50;;;;;;5041265;28;20041;-62
2023/07/16 06:49:19;;;;;;;3.28;0.98;;;21.70;67.90;;;;;;5043989;28;20029;-61
2023/07/16 06:51:44;;;;;;;1.33;0.60;;;21.70;67.70;;;;;;5044370;28;20553;-61
2023/07/16 06:54:10;;;;;;;1.52;0.90;;;21.70;67.60;;;;;;5038418;28;20033;-60
2023/07/16 06:56:36;;;;;;;3.88;0.93;;;21.80;67.50;;;;;;5046285;28;20383;-61
2023/07/16 06:59:02;;;;;;;2.22;0.75;;;21.80;67.50;;;;;;5049381;28;20124;-60
2023/07/16 07:01:28;;;;;;;2.00;0.80;;;21.80;67.80;;;;;;5041698;28;20029;-61
2023/07/16 07:03:54;;;;;;;1.52;0.80;;;21.80;68.40;;;;;;5046393;28;20021;-61
2023/07/16 07:06:21;;;;;;;0.90;0.80;;;21.90;68.80;;;;;;5023309;28;20056;-61
2023/07/16 07:08:46;;;;;;;2.40;0.80;;;21.90;68.60;;;;;;5030658;28;20025;-61
2023/07/16 07:11:12;;;;;;;0.95;0.70;;;22.00;68.60;;;;;;5024474;28;20029;-61
2023/07/16 07:13:38;;;;;;;1.73;0.88;;;22.10;68.50;;;;;;5047105;28;20418;-61
2023/07/16 07:16:04;;;;;;;1.38;0.77;;;22.10;67.90;;;;;;5046165;28;20029;-61
2023/07/16 07:18:29;;;;;;;2.30;0.93;;;22.20;67.70;;;;;;5041665;28;20055;-61
2023/07/16 07:20:55;;;;;;;4.07;0.80;;;22.20;67.50;;;;;;5043861;28;20060;-61
2023/07/16 07:23:21;;;;;;;1.50;0.65;;;22.30;67.80;;;;;;5045048;28;20098;-61
2023/07/16 07:25:51;;;;;;;1.92;0.82;;;22.30;67.60;;;;;;5046376;28;20106;-61
2023/07/16 07:28:17;;;;;;;2.22;0.95;;;22.40;67.90;;;;;;5043758;28;20079;-61
2023/07/16 07:30:45;;;;;;;1.67;1.08;;;22.40;67.60;;;;;;5039343;28;20029;-62
2023/07/16 07:33:12;;;;;;;2.97;1.17;;;22.50;67.30;;;;;;5036104;28;20037;-62
2023/07/16 07:35:39;;;;;;;2.47;1.00;;;22.50;66.90;;;;;;5023491;28;20033;-60
2023/07/16 07:38:05;;;;;;;1.90;0.93;;;22.60;66.70;;;;;;5038734;28;20108;-60
2023/07/16 07:40:31;;;;;;;1.88;0.70;;;22.70;67.20;;;;;;4954803;28;20029;-60
2023/07/16 07:42:57;;;;;;;0.88;0.80;;;22.70;66.50;;;;;;5046333;28;20036;-61
2023/07/16 07:45:24;;;;;;;0.68;0.68;;;22.80;65.70;;;;;;5044853;28;20029;-60
2023/07/16 07:47:50;;;;;;;2.40;1.00;;;22.80;65.70;;;;;;5046400;28;20025;-60
2023/07/16 07:50:16;;;;;;;1.52;0.77;;;22.90;65.90;;;;;;5043691;28;20341;-60
2023/07/16 07:52:41;;;;;;;1.38;0.80;;;23.00;65.90;;;;;;5044221;28;20391;-60
2023/07/16 07:55:07;;;;;;;1.23;0.80;;;23.00;66.00;;;;;;5044728;28;20048;-61
2023/07/16 07:57:33;;;;;;;4.82;1.30;;;23.10;66.00;;;;;;5019114;28;20021;-61
2023/07/16 07:59:59;;;;;;;1.92;0.90;;;23.20;66.40;;;;;;5045281;28;20108;-60
2023/07/16 08:02:25;;;;;;;2.63;1.05;;;23.40;66.00;;;;;;5051206;28;20104;-60
2023/07/16 08:04:54;;;;;;;2.13;1.13;;;23.50;65.30;;;;;;5048464;28;20514;-60
2023/07/16 08:07:21;;;;;;;1.75;0.77;;;23.70;64.40;;;;;;5045155;28;20020;-61
2023/07/16 08:09:47;;;;;;;1.20;1.10;;;23.70;63.70;;;;;;5045027;28;20051;-60
2023/07/16 08:12:13;;;;;;;1.73;1.05;;;23.70;63.90;;;;;;5048637;28;20029;-62
2023/07/16 08:14:39;;;;;;;2.38;0.90;;;23.80;63.60;;;;;;5026495;28;20029;-60
2023/07/16 08:17:05;;;;;;;1.92;1.23;;;23.80;62.80;;;;;;5043894;28;20041;-60
2023/07/16 08:19:31;;;;;;;2.38;0.70;;;23.70;62.50;;;;;;5029777;28;20049;-61
2023/07/16 08:21:56;;;;;;;3.78;1.20;;;23.60;62.20;;;;;;5047262;28;20027;-61
2023/07/16 08:24:22;;;;;;;3.00;1.10;;;23.60;62.50;;;;;;5048940;28;20123;-61
2023/07/16 08:26:48;;;;;;;1.35;1.02;;;23.50;62.70;;;;;;5034805;28;20029;-60
2023/07/16 08:29:13;;;;;;;1.83;1.20;;;23.50;63.10;;;;;;5050081;28;20021;-61
2023/07/16 08:31:40;;;;;;;3.22;1.08;;;23.50;63.10;;;;;;5048869;28;20522;-61
2023/07/16 08:34:06;;;;;;;2.53;1.10;;;23.50;63.30;;;;;;5028873;28;20061;-61
2023/07/16 08:36:33;;;;;;;2.20;1.13;;;23.40;63.20;;;;;;5044819;28;20073;-60
2023/07/16 08:38:59;;;;;;;1.35;1.25;;;23.40;62.90;;;;;;4970108;28;20048;-63
2023/07/16 08:41:26;;;;;;;0.82;0.82;;;23.30;62.90;;;;;;5042637;28;20034;-61
2023/07/16 08:43:52;;;;;;;3.50;0.85;;;23.20;62.80;;;;;;5043617;28;20103;-60
2023/07/16 08:46:18;;;;;;;2.22;0.80;;;23.10;62.60;;;;;;5051797;28;20104;-61
2023/07/16 08:48:45;;;;;;;1.63;1.00;;;23.10;62.70;;;;;;5045367;28;20061;-61
2023/07/16 08:51:14;;;;;;;2.33;1.00;;;23.00;62.60;;;;;;5050864;28;20131;-61
2023/07/16 08:53:40;;;;;;;2.95;1.08;;;23.00;62.10;;;;;;5046800;28;20056;-61
2023/07/16 08:56:06;;;;;;;2.35;1.00;;;22.90;62.30;;;;;;5049862;28;20080;-60
2023/07/16 08:58:32;;;;;;;2.10;1.10;;;22.90;62.50;;;;;;5047264;28;20025;-61
2023/07/16 09:01:00;;;;;;;2.67;0.95;;;22.90;62.90;;;;;;5048208;28;20028;-60
2023/07/16 09:03:26;;;;;;;1.98;1.10;;;22.90;62.70;;;;;;5049057;28;20021;-61
2023/07/16 09:05:53;;;;;;;5.57;1.20;;;23.00;63.20;;;;;;5051378;28;20032;-61
2023/07/16 09:08:19;;;;;;;2.63;1.33;;;23.00;63.20;;;;;;5052195;28;20104;-61
2023/07/16 09:10:52;;;;;;;2.92;1.10;;;23.00;62.70;;;;;;5046471;28;20105;-62
2023/07/16 09:13:18;;;;;;;2.60;1.10;;;23.10;62.30;;;;;;5038762;28;20044;-61
2023/07/16 09:15:46;;;;;;;4.32;1.30;;;23.20;62.20;;;;;;5047661;28;20083;-61
2023/07/16 09:18:11;;;;;;;6.57;1.45;;;23.20;61.70;;;;;;5044278;28;20029;-61
2023/07/16 09:20:39;;;;;;;3.72;1.13;;;23.20;62.20;;;;;;5029240;28;20029;-60
2023/07/16 09:23:05;;;;;;;3.70;1.20;;;23.30;61.80;;;;;;5048473;28;20052;-61
2023/07/16 09:25:31;;;;;;;5.57;1.50;;;23.30;62.00;;;;;;5049449;28;20029;-61
2023/07/16 09:28:04;;;;;;;5.10;1.45;;;23.40;61.60;;;;;;5050723;28;20020;-61
2023/07/16 09:30:34;;;;;;;6.68;1.33;;;23.50;61.90;;;;;;5023666;28;20034;-61
2023/07/16 09:33:10;;;;;;;3.92;1.35;;;23.60;61.30;;;;;;5044182;28;20479;-61
2023/07/16 09:35:36;;;;;;;3.58;1.35;;;23.70;60.10;;;;;;5047022;28;20032;-60
2023/07/16 09:38:03;;;;;;;4.53;1.50;;;23.80;60.00;;;;;;5045669;28;20029;-63
2023/07/16 09:40:29;;;;;;;3.42;1.48;;;23.80;59.80;;;;;;4939985;28;20048;-60
2023/07/16 09:42:56;;;;;;;6.88;1.30;;;23.90;59.60;;;;;;5024034;28;20071;-61
2023/07/16 09:45:21;;;;;;;2.72;1.15;;;23.90;59.20;;;;;;5046592;28;20030;-61
2023/07/16 09:47:47;;;;;;;3.65;1.23;;;24.00;59.00;;;;;;5044281;28;20037;-61
2023/07/16 09:50:13;;;;;;;4.85;1.17;;;24.00;58.40;;;;;;5046386;28;20494;-61
2023/07/16 09:52:39;;;;;;;2.75;1.42;;;23.90;58.30;;;;;;5049645;28;20364;-65
2023/07/16 09:55:09;;;;;;;4.45;1.30;;;23.90;58.50;;;;;;5044607;28;20046;-62
2023/07/16 09:57:38;;;;;;;3.08;1.35;;;24.00;58.40;;;;;;5049571;28;20025;-62
2023/07/16 10:00:12;;;;;;;4.65;1.40;;;23.90;58.50;;;;;;5052032;28;20091;-61
2023/07/16 10:02:37;;;;;;;;;;;24.00;58.60;;;;;;5047448;28;20029;-60
2023/07/16 10:05:16;;;;;;;3.60;1.17;;;24.20;59.00;;;;;;5047230;28;19915;-62
2023/07/16 10:07:43;;;;;;;5.07;1.27;;;24.30;58.30;;;;;;5043216;28;20048;-61
2023/07/16 10:10:10;;;;;;;5.00;1.08;;;24.50;58.20;;;;;;5044633;28;20045;-61
2023/07/16 10:12:37;;;;;;;5.68;1.20;;;24.60;57.90;;;;;;5047973;28;20044;-60
2023/07/16 10:15:05;;;;;;;10.60;2.40;;;24.70;58.00;;;;;;5048663;28;20032;-61
2023/07/16 10:17:32;;;;;;;1.95;1.13;;;24.80;57.40;;;;;;5044706;28;20124;-63
2023/07/16 10:20:00;;;;;;;1.58;1.05;;;25.00;57.60;;;;;;5038787;28;20388;-62
2023/07/16 10:22:49;;;;;;;3.25;1.23;;;25.20;57.80;;;;;;5042307;28;20085;-61
2023/07/16 10:25:18;;;;;;;2.65;1.20;;;25.40;56.40;;;;;;5043591;28;20026;-61
2023/07/16 10:27:48;;;;;;;3.33;1.27;;;25.70;56.80;;;;;;5040500;28;20044;-61
2023/07/16 10:30:15;;;;;;;4.22;1.02;;;25.90;56.10;;;;;;5029640;28;20124;-61
2023/07/16 10:32:41;;;;;;;1.65;0.98;;;26.00;55.70;;;;;;5047639;28;20037;-61
2023/07/16 10:35:11;;;;;;;3.30;1.20;;;26.10;54.90;;;;;;5048562;28;20356;-61
2023/07/16 10:37:38;;;;;;;3.38;1.80;;;26.10;54.60;;;;;;5041934;28;20111;-61
2023/07/16 10:40:05;;;;;;;2.70;1.17;;;26.10;54.50;;;;;;5029329;28;20035;-61
2023/07/16 10:42:32;;;;;;;2.67;1.40;;;26.10;54.80;;;;;;4978770;28;20017;-60
2023/07/16 10:44:59;;;;;;;3.45;1.15;;;26.20;54.30;;;;;;5049213;28;20066;-61
2023/07/16 10:47:32;;;;;;;2.20;1.23;;;26.30;53.90;;;;;;5043049;28;20040;-61
2023/07/16 10:50:00;;;;;;;2.75;1.30;;;26.30;53.40;;;;;;5042762;28;20357;-62
2023/07/16 10:52:26;;;;;;;3.35;1.27;;;26.40;53.90;;;;;;5044967;28;20025;-62
2023/07/16 10:54:57;;;;;;;2.53;1.00;;;26.50;53.10;;;;;;5049257;28;20622;-62
2023/07/16 10:57:24;;;;;;;6.38;1.30;;;26.50;52.70;;;;;;5024452;28;20112;-62
2023/07/16 10:59:57;;;;;;;1.83;1.08;;;26.50;52.70;;;;;;5041988;28;20028;-61
2023/07/16 11:02:25;;;;;;;7.75;1.10;;;26.50;52.30;;;;;;5043581;28;20020;-61
2023/07/16 11:04:54;;;;;;;2.25;1.00;;;26.50;52.40;;;;;;5049624;28;20037;-62
2023/07/16 11:07:21;;;;;;;1.75;1.00;;;26.50;52.60;;;;;;5048824;28;20491;-61
2023/07/16 11:09:53;;;;;;;3.28;0.93;;;26.40;51.80;;;;;;5026899;28;20041;-61
2023/07/16 11:12:22;;;;;;;5.50;1.13;;;26.40;52.00;;;;;;5043631;28;20116;-62
2023/07/16 11:14:51;;;;;;;4.45;1.23;;;26.30;51.70;;;;;;5046117;28;20075;-62
2023/07/16 11:17:17;;;;;;;1.70;1.05;;;26.20;51.60;;;;;;5037987;28;20025;-62
2023/07/16 11:19:48;;;;;;;3.03;1.27;;;26.20;51.90;;;;;;5050013;28;20052;-62
2023/07/16 11:22:14;;;;;;;2.58;1.20;;;26.10;52.10;;;;;;5044953;28;20147;-61
2023/07/16 11:24:51;;;;;;;3.92;1.38;;;26.10;52.80;;;;;;5043764;28;20017;-61
2023/07/16 11:27:32;;;;;;;3.38;1.38;;;26.00;51.40;;;;;;5043810;28;20082;-61
2023/07/16 11:29:59;;;;;;;3.60;1.40;;;26.00;51.90;;;;;;5024585;28;20492;-61
2023/07/16 11:32:35;;;;;;;2.83;1.13;;;26.10;52.20;;;;;;5038499;28;20025;-61
2023/07/16 11:35:04;;;;;;;3.53;1.33;;;26.10;51.90;;;;;;5045528;28;20033;-61
2023/07/16 11:37:31;;;;;;;3.03;1.30;;;26.20;52.80;;;;;;5038394;28;20091;-61
2023/07/16 11:40:05;;;;;;;3.50;1.17;;;26.30;52.50;;;;;;5046519;28;20407;-62
2023/07/16 11:42:34;;;;;;;2.03;1.13;;;26.50;51.90;;;;;;5046035;28;20028;-62
2023/07/16 11:45:01;;;;;;;4.13;1.30;;;26.60;51.80;;;;;;5042601;28;20134;-61
2023/07/16 11:47:27;;;;;;;2.28;1.10;;;26.70;51.30;;;;;;5047373;28;20430;-61
2023/07/16 11:49:54;;;;;;;3.65;1.30;;;26.70;51.00;;;;;;5044529;28;20649;-61
2023/07/16 11:52:22;;;;;;;2.67;1.20;;;26.70;50.50;;;;;;5040353;28;20032;-62
2023/07/16 11:54:49;;;;;;;3.72;1.17;;;26.60;50.40;;;;;;5043425;28;20044;-62
2023/07/16 11:57:15;;;;;;;3.08;1.10;;;26.60;50.30;;;;;;5034030;28;20056;-63
2023/07/16 11:59:41;;;;;;;2.72;1.00;;;26.70;51.20;;;;;;5045041;28;20025;-62
2023/07/16 12:02:07;;;;;;;3.63;1.17;;;26.80;51.10;;;;;;5033617;28;20080;-62
2023/07/16 12:04:33;;;;;;;2.15;1.00;;;27.00;52.10;;;;;;5040678;28;20025;-62
2023/07/16 12:06:59;;;;;;;4.55;1.25;;;27.10;52.60;;;;;;5027848;28;20165;-60
2023/07/16 12:09:24;;;;;;;2.47;1.30;;;27.40;52.20;;;;;;5021487;28;20025;-61
2023/07/16 12:11:50;;;;;;;2.72;1.20;;;27.60;51.10;;;;;;5043331;28;20036;-61
2023/07/16 12:14:16;;;;;;;2.33;1.20;;;27.80;50.90;;;;;;5037510;28;20084;-61
2023/07/16 12:16:42;;;;;;;1.48;1.08;;;27.90;51.10;;;;;;5026268;28;20308;-61
2023/07/16 12:19:09;;;;;;;2.13;1.20;;;28.10;51.30;;;;;;5043801;28;20025;-61
2023/07/16 12:21:35;;;;;;;9.63;1.23;;;28.30;50.70;;;;;;5045590;28;20025;-61
2023/07/16 12:24:01;;;;;;;1.70;1.15;;;28.60;50.90;;;;;;5041490;28;20056;-62
2023/07/16 12:26:27;;;;;;;1.98;1.10;;;28.90;50.60;;;;;;5040637;28;20492;-62
2023/07/16 12:28:53;;;;;;;4.53;1.30;;;29.10;49.80;;;;;;5037902;28;20441;-62
2023/07/16 12:31:22;;;;;;;1.70;0.98;;;29.30;49.00;;;;;;5051181;28;20048;-62
2023/07/16 12:33:48;;;;;;;1.55;1.10;;;29.50;47.70;;;;;;5053810;28;20036;-62
2023/07/16 12:36:14;;;;;;;17.67;1.27;;;29.50;47.40;;;;;;5047889;28;20031;-62
2023/07/16 12:38:41;;;;;;;2.00;1.05;;;29.50;47.30;;;;;;5037783;28;20508;-62
2023/07/16 12:41:06;;;;;;;1.88;1.10;;;29.60;47.20;;;;;;5036837;28;20027;-63
2023/07/16 12:43:34;;;;;;;0.90;0.85;;;29.60;46.90;;;;;;5042770;28;20112;-63
2023/07/16 12:46:03;;;;;;;5.03;1.33;;;29.60;46.80;;;;;;5038549;28;20089;-63